sensor_id;sensor_type;location;lat;lon;timestamp;pressure;altitude;pressure_sealevel;temperature;humidity
48364;BME280;34170;54.364;18.582;2023-04-19T00:01:48;101188.16;;;7.02;95.61
48364;BME280;34170;54.364;18.582;2023-04-19T00:04:16;101198.69;;;7.05;95.56
48364;BME280;34170;54.364;18.582;2023-04-19T00:06:44;101181.66;;;7.06;95.69
48364;BME280;34170;54.364;18.582;2023-04-19T00:09:13;101171.97;;;7.18;95.36
48364;BME280;34170;54.364;18.582;2023-04-19T00:11:41;101182.16;;;7.25;94.59
48364;BME280;34170;54.364;18.582;2023-04-19T00:14:08;101183.53;;;7.18;94.77
48364;BME280;34170;54.364;18.582;2023-04-19T00:16:36;101168.28;;;7.06;94.50
48364;BME280;34170;54.364;18.582;2023-04-19T00:19:04;101166.91;;;7.13;94.83
48364;BME280;34170;54.364;18.582;2023-04-19T00:21:31;101171.97;;;7.18;94.39
48364;BME280;34170;54.364;18.582;2023-04-19T00:24:01;101173.72;;;7.32;93.21
48364;BME280;34170;54.364;18.582;2023-04-19T00:26:29;101163.97;;;7.31;93.87
48364;BME280;34170;54.364;18.582;2023-04-19T00:28:56;101162.91;;;7.33;93.58
48364;BME280;34170;54.364;18.582;2023-04-19T00:31:24;101163.59;;;7.50;92.60
48364;BME280;34170;54.364;18.582;2023-04-19T00:33:51;101168.94;;;7.37;92.52
48364;BME280;34170;54.364;18.582;2023-04-19T00:36:18;101165.25;;;7.25;92.57
48364;BME280;34170;54.364;18.582;2023-04-19T00:38:47;101154.13;;;7.31;92.63
48364;BME280;34170;54.364;18.582;2023-04-19T00:41:14;101156.91;;;7.30;93.51
48364;BME280;34170;54.364;18.582;2023-04-19T00:43:42;101154.19;;;7.44;92.84
48364;BME280;34170;54.364;18.582;2023-04-19T00:46:09;101150.00;;;7.53;91.28
48364;BME280;34170;54.364;18.582;2023-04-19T00:48:38;101163.38;;;7.53;91.57
48364;BME280;34170;54.364;18.582;2023-04-19T00:51:05;101156.53;;;7.61;90.79
48364;BME280;34170;54.364;18.582;2023-04-19T00:53:33;101154.38;;;7.41;90.79
48364;BME280;34170;54.364;18.582;2023-04-19T00:56:03;101152.16;;;7.60;90.73
48364;BME280;34170;54.364;18.582;2023-04-19T00:58:31;101146.44;;;7.39;91.62
48364;BME280;34170;54.364;18.582;2023-04-19T01:00:59;101133.28;;;7.36;91.43
48364;BME280;34170;54.364;18.582;2023-04-19T01:03:26;101144.06;;;7.35;92.73
48364;BME280;34170;54.364;18.582;2023-04-19T01:05:55;101136.47;;;7.29;92.90
48364;BME280;34170;54.364;18.582;2023-04-19T01:08:23;101131.25;;;7.40;92.35
48364;BME280;34170;54.364;18.582;2023-04-19T01:10:52;101137.13;;;7.32;92.97
48364;BME280;34170;54.364;18.582;2023-04-19T01:13:20;101139.97;;;7.16;94.27
48364;BME280;34170;54.364;18.582;2023-04-19T01:15:47;101132.88;;;7.15;94.25
48364;BME280;34170;54.364;18.582;2023-04-19T01:18:15;101121.91;;;6.93;95.53
48364;BME280;34170;54.364;18.582;2023-04-19T01:20:42;101128.91;;;6.81;97.00
48364;BME280;34170;54.364;18.582;2023-04-19T01:23:10;101115.63;;;6.52;98.83
48364;BME280;34170;54.364;18.582;2023-04-19T01:25:38;101120.94;;;6.66;98.10
48364;BME280;34170;54.364;18.582;2023-04-19T01:28:05;101123.09;;;6.47;99.05
48364;BME280;34170;54.364;18.582;2023-04-19T01:30:33;101119.41;;;6.21;100.00
48364;BME280;34170;54.364;18.582;2023-04-19T01:33:01;101103.56;;;6.32;100.00
48364;BME280;34170;54.364;18.582;2023-04-19T01:35:29;101096.50;;;6.31;100.00
48364;BME280;34170;54.364;18.582;2023-04-19T01:37:56;101104.59;;;6.29;100.00
48364;BME280;34170;54.364;18.582;2023-04-19T01:40:24;101105.94;;;6.37;100.00
48364;BME280;34170;54.364;18.582;2023-04-19T01:42:52;101105.56;;;6.28;100.00
48364;BME280;34170;54.364;18.582;2023-04-19T01:45:19;101106.72;;;6.24;100.00
48364;BME280;34170;54.364;18.582;2023-04-19T01:47:50;101092.31;;;6.13;100.00
48364;BME280;34170;54.364;18.582;2023-04-19T01:50:18;101100.91;;;6.18;100.00
48364;BME280;34170;54.364;18.582;2023-04-19T01:52:46;101089.63;;;6.27;100.00
48364;BME280;34170;54.364;18.582;2023-04-19T01:55:13;101093.06;;;6.29;100.00
48364;BME280;34170;54.364;18.582;2023-04-19T01:57:40;101092.97;;;6.30;100.00
48364;BME280;34170;54.364;18.582;2023-04-19T02:00:08;101083.47;;;6.12;100.00
48364;BME280;34170;54.364;18.582;2023-04-19T02:02:42;101097.47;;;6.16;100.00
48364;BME280;34170;54.364;18.582;2023-04-19T02:05:10;101088.31;;;6.20;100.00
48364;BME280;34170;54.364;18.582;2023-04-19T02:07:37;101087.56;;;6.03;100.00
48364;BME280;34170;54.364;18.582;2023-04-19T02:10:07;101095.47;;;6.19;100.00
48364;BME280;34170;54.364;18.582;2023-04-19T02:12:35;101085.44;;;5.94;100.00
48364;BME280;34170;54.364;18.582;2023-04-19T02:15:03;101086.72;;;6.03;100.00
48364;BME280;34170;54.364;18.582;2023-04-19T02:17:33;101089.25;;;5.90;100.00
48364;BME280;34170;54.364;18.582;2023-04-19T02:20:02;101092.78;;;5.90;100.00
48364;BME280;34170;54.364;18.582;2023-04-19T02:22:30;101092.06;;;6.03;100.00
48364;BME280;34170;54.364;18.582;2023-04-19T02:24:58;101073.38;;;6.03;100.00
48364;BME280;34170;54.364;18.582;2023-04-19T02:27:28;101087.16;;;6.24;100.00
48364;BME280;34170;54.364;18.582;2023-04-19T02:29:56;101070.88;;;6.14;100.00
48364;BME280;34170;54.364;18.582;2023-04-19T02:32:23;101080.22;;;6.07;100.00
48364;BME280;34170;54.364;18.582;2023-04-19T02:34:51;101077.63;;;5.91;100.00
48364;BME280;34170;54.364;18.582;2023-04-19T02:37:18;101065.88;;;5.93;100.00
48364;BME280;34170;54.364;18.582;2023-04-19T02:39:45;101070.78;;;5.87;100.00
48364;BME280;34170;54.364;18.582;2023-04-19T02:42:13;101079.66;;;6.02;100.00
48364;BME280;34170;54.364;18.582;2023-04-19T02:44:40;101085.44;;;5.94;100.00
48364;BME280;34170;54.364;18.582;2023-04-19T02:47:08;101064.03;;;5.96;100.00
48364;BME280;34170;54.364;18.582;2023-04-19T02:49:35;101055.34;;;5.92;100.00
48364;BME280;34170;54.364;18.582;2023-04-19T02:52:04;101052.19;;;5.85;100.00
48364;BME280;34170;54.364;18.582;2023-04-19T02:54:32;101054.22;;;5.96;100.00
48364;BME280;34170;54.364;18.582;2023-04-19T02:57:00;101059.03;;;5.89;100.00
48364;BME280;34170;54.364;18.582;2023-04-19T02:59:28;101045.03;;;6.00;100.00
48364;BME280;34170;54.364;18.582;2023-04-19T03:01:59;101052.88;;;6.03;100.00
48364;BME280;34170;54.364;18.582;2023-04-19T03:04:26;101031.19;;;5.79;100.00
48364;BME280;34170;54.364;18.582;2023-04-19T03:06:55;101030.81;;;5.85;100.00
48364;BME280;34170;54.364;18.582;2023-04-19T03:09:22;101047.50;;;5.89;100.00
48364;BME280;34170;54.364;18.582;2023-04-19T03:11:50;101042.44;;;5.84;100.00
48364;BME280;34170;54.364;18.582;2023-04-19T03:14:17;101048.34;;;5.89;100.00
48364;BME280;34170;54.364;18.582;2023-04-19T03:16:45;101050.09;;;5.90;100.00
48364;BME280;34170;54.364;18.582;2023-04-19T03:19:12;101038.06;;;6.12;100.00
48364;BME280;34170;54.364;18.582;2023-04-19T03:21:46;101034.53;;;5.97;100.00
48364;BME280;34170;54.364;18.582;2023-04-19T03:24:18;101045.41;;;5.94;100.00
48364;BME280;34170;54.364;18.582;2023-04-19T03:26:50;101044.25;;;6.13;100.00
48364;BME280;34170;54.364;18.582;2023-04-19T03:29:22;101038.06;;;6.12;100.00
48364;BME280;34170;54.364;18.582;2023-04-19T03:32:00;101037.19;;;6.11;100.00
48364;BME280;34170;54.364;18.582;2023-04-19T03:34:28;101038.44;;;6.06;100.00
48364;BME280;34170;54.364;18.582;2023-04-19T03:36:56;101039.41;;;6.05;100.00
48364;BME280;34170;54.364;18.582;2023-04-19T03:39:23;101035.31;;;6.14;100.00
48364;BME280;34170;54.364;18.582;2023-04-19T03:41:56;101029.97;;;6.14;100.00
48364;BME280;34170;54.364;18.582;2023-04-19T03:44:39;101035.38;;;6.26;99.92
48364;BME280;34170;54.364;18.582;2023-04-19T03:47:08;101028.13;;;6.14;99.24
48364;BME280;34170;54.364;18.582;2023-04-19T03:49:41;101033.16;;;6.19;100.00
48364;BME280;34170;54.364;18.582;2023-04-19T03:52:08;101023.41;;;6.05;99.84
48364;BME280;34170;54.364;18.582;2023-04-19T03:54:36;101028.91;;;6.16;99.93
48364;BME280;34170;54.364;18.582;2023-04-19T03:57:07;101025.94;;;6.21;99.36
48364;BME280;34170;54.364;18.582;2023-04-19T03:59:37;101025.16;;;6.33;98.64
48364;BME280;34170;54.364;18.582;2023-04-19T04:02:06;101027.00;;;6.45;97.71
48364;BME280;34170;54.364;18.582;2023-04-19T04:04:33;101020.94;;;6.56;96.32
48364;BME280;34170;54.364;18.582;2023-04-19T04:07:01;101024.97;;;6.49;95.77
48364;BME280;34170;54.364;18.582;2023-04-19T04:09:28;101015.84;;;6.66;94.87
48364;BME280;34170;54.364;18.582;2023-04-19T04:11:56;101023.56;;;6.71;93.77
48364;BME280;34170;54.364;18.582;2023-04-19T04:14:23;101005.28;;;6.77;94.53
48364;BME280;34170;54.364;18.582;2023-04-19T04:16:51;101010.44;;;6.80;94.02
48364;BME280;34170;54.364;18.582;2023-04-19T04:19:19;101015.88;;;6.79;93.00
48364;BME280;34170;54.364;18.582;2023-04-19T04:21:49;101003.63;;;6.89;92.23
48364;BME280;34170;54.364;18.582;2023-04-19T04:24:16;101014.78;;;7.09;92.38
48364;BME280;34170;54.364;18.582;2023-04-19T04:27:04;101008.88;;;7.03;91.71
48364;BME280;34170;54.364;18.582;2023-04-19T04:29:38;101012.56;;;7.28;90.25
48364;BME280;34170;54.364;18.582;2023-04-19T04:32:07;101010.81;;;7.01;90.49
48364;BME280;34170;54.364;18.582;2023-04-19T04:34:40;101018.19;;;6.98;90.04
48364;BME280;34170;54.364;18.582;2023-04-19T04:37:14;101011.47;;;6.78;91.71
48364;BME280;34170;54.364;18.582;2023-04-19T04:39:42;101024.81;;;7.05;90.99
48364;BME280;34170;54.364;18.582;2023-04-19T04:42:10;101014.63;;;6.97;91.03
48364;BME280;34170;54.364;18.582;2023-04-19T04:44:38;101021.28;;;7.04;90.73
48364;BME280;34170;54.364;18.582;2023-04-19T04:47:12;101006.84;;;6.94;91.52
48364;BME280;34170;54.364;18.582;2023-04-19T04:49:46;101021.31;;;7.30;89.77
48364;BME280;34170;54.364;18.582;2023-04-19T04:52:13;101019.06;;;7.24;89.17
48364;BME280;34170;54.364;18.582;2023-04-19T04:54:50;101026.03;;;7.14;89.80
48364;BME280;34170;54.364;18.582;2023-04-19T04:57:25;101017.84;;;7.02;90.61
48364;BME280;34170;54.364;18.582;2023-04-19T04:59:52;101027.47;;;6.92;90.83
48364;BME280;34170;54.364;18.582;2023-04-19T05:02:21;101017.19;;;6.86;90.69
48364;BME280;34170;54.364;18.582;2023-04-19T05:04:50;101032.41;;;7.11;89.33
48364;BME280;34170;54.364;18.582;2023-04-19T05:07:18;101025.22;;;6.99;90.26
48364;BME280;34170;54.364;18.582;2023-04-19T05:09:45;101030.28;;;7.03;89.68
48364;BME280;34170;54.364;18.582;2023-04-19T05:12:17;101030.84;;;7.21;88.33
48364;BME280;34170;54.364;18.582;2023-04-19T05:14:44;101013.34;;;6.90;88.60
48364;BME280;34170;54.364;18.582;2023-04-19T05:17:12;101029.66;;;7.25;87.47
48364;BME280;34170;54.364;18.582;2023-04-19T05:19:39;101017.22;;;7.12;87.62
48364;BME280;34170;54.364;18.582;2023-04-19T05:22:07;101018.94;;;7.13;88.15
48364;BME280;34170;54.364;18.582;2023-04-19T05:24:36;101015.44;;;7.25;86.79
48364;BME280;34170;54.364;18.582;2023-04-19T05:27:04;101018.31;;;7.73;84.67
48364;BME280;34170;54.364;18.582;2023-04-19T05:29:31;101014.16;;;7.69;84.24
48364;BME280;34170;54.364;18.582;2023-04-19T05:31:59;101014.00;;;7.71;82.85
48364;BME280;34170;54.364;18.582;2023-04-19T05:34:30;101002.91;;;7.64;82.40
48364;BME280;34170;54.364;18.582;2023-04-19T05:36:59;101011.91;;;7.50;81.31
48364;BME280;34170;54.364;18.582;2023-04-19T05:39:26;101002.25;;;7.73;81.12
48364;BME280;34170;54.364;18.582;2023-04-19T05:41:54;101012.69;;;8.02;80.33
48364;BME280;34170;54.364;18.582;2023-04-19T05:44:21;101008.50;;;8.35;78.25
48364;BME280;34170;54.364;18.582;2023-04-19T05:46:48;100999.84;;;7.81;77.77
48364;BME280;34170;54.364;18.582;2023-04-19T05:49:30;100996.91;;;8.34;76.32
48364;BME280;34170;54.364;18.582;2023-04-19T05:52:15;101010.28;;;8.71;74.35
48364;BME280;34170;54.364;18.582;2023-04-19T05:54:46;101004.25;;;8.92;71.60
48364;BME280;34170;54.364;18.582;2023-04-19T05:57:13;101003.97;;;9.19;70.32
48364;BME280;34170;54.364;18.582;2023-04-19T05:59:41;100994.78;;;8.99;68.62
48364;BME280;34170;54.364;18.582;2023-04-19T06:02:09;101000.25;;;8.97;69.32
48364;BME280;34170;54.364;18.582;2023-04-19T06:04:37;100994.13;;;8.84;69.99
48364;BME280;34170;54.364;18.582;2023-04-19T06:07:06;100988.50;;;9.34;68.16
48364;BME280;34170;54.364;18.582;2023-04-19T06:09:47;100996.06;;;9.85;65.80
48364;BME280;34170;54.364;18.582;2023-04-19T06:12:15;100984.38;;;9.52;66.57
48364;BME280;34170;54.364;18.582;2023-04-19T06:14:44;100985.47;;;9.72;64.67
48364;BME280;34170;54.364;18.582;2023-04-19T06:17:11;100973.91;;;10.16;62.91
48364;BME280;34170;54.364;18.582;2023-04-19T06:19:40;100980.97;;;10.28;61.47
48364;BME280;34170;54.364;18.582;2023-04-19T06:22:08;100977.47;;;10.05;60.71
48364;BME280;34170;54.364;18.582;2023-04-19T06:24:35;100967.13;;;9.89;62.55
48364;BME280;34170;54.364;18.582;2023-04-19T06:27:03;100967.53;;;10.72;59.94
48364;BME280;34170;54.364;18.582;2023-04-19T06:29:30;100974.28;;;10.22;60.53
48364;BME280;34170;54.364;18.582;2023-04-19T06:31:58;100982.19;;;9.80;62.06
48364;BME280;34170;54.364;18.582;2023-04-19T06:34:25;100975.47;;;9.52;63.53
48364;BME280;34170;54.364;18.582;2023-04-19T06:36:53;100969.00;;;9.43;64.78
48364;BME280;34170;54.364;18.582;2023-04-19T06:39:20;100992.16;;;9.44;65.68
48364;BME280;34170;54.364;18.582;2023-04-19T06:41:47;100994.19;;;9.07;67.55
48364;BME280;34170;54.364;18.582;2023-04-19T06:44:16;101004.69;;;9.10;68.19
48364;BME280;34170;54.364;18.582;2023-04-19T06:46:44;101007.25;;;9.23;67.47
48364;BME280;34170;54.364;18.582;2023-04-19T06:49:11;101021.34;;;9.83;65.32
48364;BME280;34170;54.364;18.582;2023-04-19T06:51:39;101018.78;;;9.92;63.48
48364;BME280;34170;54.364;18.582;2023-04-19T06:54:06;101026.69;;;10.28;62.44
48364;BME280;34170;54.364;18.582;2023-04-19T06:56:44;101018.94;;;9.57;63.48
48364;BME280;34170;54.364;18.582;2023-04-19T06:59:16;101016.47;;;9.43;65.36
48364;BME280;34170;54.364;18.582;2023-04-19T07:01:46;101013.78;;;9.54;64.35
48364;BME280;34170;54.364;18.582;2023-04-19T07:04:14;101020.56;;;10.48;60.18
48364;BME280;34170;54.364;18.582;2023-04-19T07:06:42;101009.22;;;11.19;57.02
48364;BME280;34170;54.364;18.582;2023-04-19T07:09:10;101001.75;;;10.37;58.34
48364;BME280;34170;54.364;18.582;2023-04-19T07:11:37;101010.94;;;10.35;58.73
48364;BME280;34170;54.364;18.582;2023-04-19T07:14:05;101001.47;;;9.63;61.47
48364;BME280;34170;54.364;18.582;2023-04-19T07:16:32;101012.50;;;10.37;59.98
48364;BME280;34170;54.364;18.582;2023-04-19T07:18:59;101017.53;;;11.37;56.34
48364;BME280;34170;54.364;18.582;2023-04-19T07:21:27;101011.66;;;11.74;52.78
48364;BME280;34170;54.364;18.582;2023-04-19T07:23:58;101008.50;;;12.50;51.06
48364;BME280;34170;54.364;18.582;2023-04-19T07:26:26;101003.06;;;13.09;48.52
48364;BME280;34170;54.364;18.582;2023-04-19T07:28:53;100990.03;;;12.65;49.60
48364;BME280;34170;54.364;18.582;2023-04-19T07:31:21;100990.53;;;13.84;47.65
48364;BME280;34170;54.364;18.582;2023-04-19T07:33:48;101012.03;;;16.51;40.20
48364;BME280;34170;54.364;18.582;2023-04-19T07:36:16;100995.06;;;16.73;39.51
48364;BME280;34170;54.364;18.582;2023-04-19T07:38:43;100993.91;;;17.01;38.16
48364;BME280;34170;54.364;18.582;2023-04-19T07:41:10;100987.81;;;16.07;39.57
48364;BME280;34170;54.364;18.582;2023-04-19T07:43:38;100964.66;;;15.78;39.89
48364;BME280;34170;54.364;18.582;2023-04-19T07:46:12;100971.97;;;15.86;39.94
48364;BME280;34170;54.364;18.582;2023-04-19T07:48:39;100967.41;;;17.36;37.96
48364;BME280;34170;54.364;18.582;2023-04-19T07:51:11;100979.00;;;15.44;39.44
48364;BME280;34170;54.364;18.582;2023-04-19T07:53:39;100975.03;;;13.77;44.00
48364;BME280;34170;54.364;18.582;2023-04-19T07:56:08;100970.53;;;14.41;42.59
48364;BME280;34170;54.364;18.582;2023-04-19T07:58:38;100961.59;;;14.76;41.90
48364;BME280;34170;54.364;18.582;2023-04-19T08:01:07;100966.28;;;12.98;45.72
48364;BME280;34170;54.364;18.582;2023-04-19T08:03:35;100939.41;;;10.97;51.53
48364;BME280;34170;54.364;18.582;2023-04-19T08:06:05;100951.94;;;10.22;54.19
48364;BME280;34170;54.364;18.582;2023-04-19T08:08:35;100963.03;;;10.17;55.65
48364;BME280;34170;54.364;18.582;2023-04-19T08:11:03;100972.97;;;9.04;60.84
48364;BME280;34170;54.364;18.582;2023-04-19T08:13:31;100980.81;;;9.18;61.33
48364;BME280;34170;54.364;18.582;2023-04-19T08:15:59;100984.81;;;8.66;63.70
48364;BME280;34170;54.364;18.582;2023-04-19T08:18:46;100986.97;;;8.61;65.10
48364;BME280;34170;54.364;18.582;2023-04-19T08:21:17;100976.91;;;8.75;64.81
48364;BME280;34170;54.364;18.582;2023-04-19T08:23:49;100982.59;;;8.23;66.80
48364;BME280;34170;54.364;18.582;2023-04-19T08:26:20;100999.25;;;7.65;70.38
48364;BME280;34170;54.364;18.582;2023-04-19T08:28:48;100997.38;;;8.28;68.76
48364;BME280;34170;54.364;18.582;2023-04-19T08:31:18;100983.28;;;8.13;68.99
48364;BME280;34170;54.364;18.582;2023-04-19T08:33:47;100969.13;;;7.87;70.18
48364;BME280;34170;54.364;18.582;2023-04-19T08:36:14;101001.06;;;7.26;73.53
48364;BME280;34170;54.364;18.582;2023-04-19T08:38:48;100989.41;;;7.27;75.35
48364;BME280;34170;54.364;18.582;2023-04-19T08:41:31;100986.19;;;7.35;75.84
48364;BME280;34170;54.364;18.582;2023-04-19T08:43:59;100979.25;;;7.45;75.83
48364;BME280;34170;54.364;18.582;2023-04-19T08:46:29;100976.78;;;7.29;76.93
48364;BME280;34170;54.364;18.582;2023-04-19T08:48:58;100991.13;;;7.54;76.96
48364;BME280;34170;54.364;18.582;2023-04-19T08:51:26;100988.56;;;7.14;79.08
48364;BME280;34170;54.364;18.582;2023-04-19T08:53:55;100997.84;;;6.95;80.76
48364;BME280;34170;54.364;18.582;2023-04-19T08:56:24;100989.09;;;7.06;81.04
48364;BME280;34170;54.364;18.582;2023-04-19T08:59:01;100975.06;;;7.02;83.52
48364;BME280;34170;54.364;18.582;2023-04-19T09:01:44;100993.25;;;6.97;82.12
48364;BME280;34170;54.364;18.582;2023-04-19T09:04:11;100979.03;;;6.97;83.35
48364;BME280;34170;54.364;18.582;2023-04-19T09:06:42;100981.94;;;7.06;82.09
48364;BME280;34170;54.364;18.582;2023-04-19T09:09:19;100986.63;;;7.41;83.98
48364;BME280;34170;54.364;18.582;2023-04-19T09:12:01;100986.53;;;7.30;81.17
48364;BME280;34170;54.364;18.582;2023-04-19T09:14:29;100975.50;;;7.35;84.62
48364;BME280;34170;54.364;18.582;2023-04-19T09:17:12;100978.72;;;7.27;82.61
48364;BME280;34170;54.364;18.582;2023-04-19T09:19:48;100965.44;;;7.00;84.37
48364;BME280;34170;54.364;18.582;2023-04-19T09:22:16;100959.34;;;6.98;84.62
48364;BME280;34170;54.364;18.582;2023-04-19T09:24:44;100967.38;;;7.11;85.27
48364;BME280;34170;54.364;18.582;2023-04-19T09:27:33;100961.59;;;7.17;86.53
48364;BME280;34170;54.364;18.582;2023-04-19T09:30:02;100963.97;;;6.56;89.68
48364;BME280;34170;54.364;18.582;2023-04-19T09:32:47;100969.13;;;6.59;92.60
48364;BME280;34170;54.364;18.582;2023-04-19T09:35:15;100959.13;;;6.35;94.33
48364;BME280;34170;54.364;18.582;2023-04-19T09:37:59;100950.44;;;6.72;95.39
48364;BME280;34170;54.364;18.582;2023-04-19T09:40:29;100950.22;;;6.75;96.31
48364;BME280;34170;54.364;18.582;2023-04-19T09:42:57;100955.63;;;6.20;98.27
48364;BME280;34170;54.364;18.582;2023-04-19T09:45:45;100960.06;;;6.07;100.00
48364;BME280;34170;54.364;18.582;2023-04-19T09:48:13;100936.28;;;6.44;100.00
48364;BME280;34170;54.364;18.582;2023-04-19T09:50:52;100950.13;;;6.36;100.00
48364;BME280;34170;54.364;18.582;2023-04-19T09:53:30;100935.06;;;6.08;100.00
48364;BME280;34170;54.364;18.582;2023-04-19T09:56:01;100940.31;;;6.09;100.00
48364;BME280;34170;54.364;18.582;2023-04-19T09:58:30;100945.53;;;6.11;100.00
48364;BME280;34170;54.364;18.582;2023-04-19T10:01:12;100959.88;;;6.10;100.00
48364;BME280;34170;54.364;18.582;2023-04-19T10:03:44;100957.03;;;5.99;100.00
48364;BME280;34170;54.364;18.582;2023-04-19T10:06:15;100956.09;;;5.85;100.00
48364;BME280;34170;54.364;18.582;2023-04-19T10:09:04;100937.03;;;5.77;100.00
48364;BME280;34170;54.364;18.582;2023-04-19T10:11:34;100960.44;;;6.01;100.00
48364;BME280;34170;54.364;18.582;2023-04-19T10:14:14;100955.06;;;5.59;100.00
48364;BME280;34170;54.364;18.582;2023-04-19T10:16:41;100979.25;;;5.85;100.00
48364;BME280;34170;54.364;18.582;2023-04-19T10:19:11;100971.56;;;5.66;100.00
48364;BME280;34170;54.364;18.582;2023-04-19T10:21:43;100958.69;;;5.58;100.00
48364;BME280;34170;54.364;18.582;2023-04-19T10:24:14;100953.44;;;5.71;100.00
48364;BME280;34170;54.364;18.582;2023-04-19T10:27:04;100947.00;;;6.02;100.00
48364;BME280;34170;54.364;18.582;2023-04-19T10:32:27;100930.16;;;5.73;100.00
48364;BME280;34170;54.364;18.582;2023-04-19T10:35:01;100936.84;;;5.80;100.00
48364;BME280;34170;54.364;18.582;2023-04-19T10:37:30;100936.31;;;5.88;100.00
48364;BME280;34170;54.364;18.582;2023-04-19T10:39:58;100926.53;;;5.88;100.00
48364;BME280;34170;54.364;18.582;2023-04-19T10:43:28;100930.50;;;6.10;100.00
48364;BME280;34170;54.364;18.582;2023-04-19T10:45:36;100918.38;;;5.90;100.00
48364;BME280;34170;54.364;18.582;2023-04-19T10:48:04;100927.19;;;5.92;100.00
48364;BME280;34170;54.364;18.582;2023-04-19T10:50:56;100932.63;;;5.90;100.00
48364;BME280;34170;54.364;18.582;2023-04-19T10:53:53;100931.03;;;5.73;100.00
48364;BME280;34170;54.364;18.582;2023-04-19T11:01:40;100935.97;;;6.21;100.00
48364;BME280;34170;54.364;18.582;2023-04-19T11:04:12;100924.00;;;6.14;100.00
48364;BME280;34170;54.364;18.582;2023-04-19T11:12:01;100937.19;;;6.03;100.00
48364;BME280;34170;54.364;18.582;2023-04-19T11:14:30;100940.75;;;6.43;100.00
48364;BME280;34170;54.364;18.582;2023-04-19T11:17:02;100944.03;;;6.34;100.00
48364;BME280;34170;54.364;18.582;2023-04-19T11:19:30;100934.97;;;6.37;100.00
48364;BME280;34170;54.364;18.582;2023-04-19T11:21:58;100932.31;;;6.37;100.00
48364;BME280;34170;54.364;18.582;2023-04-19T11:24:25;100941.66;;;6.57;100.00
48364;BME280;34170;54.364;18.582;2023-04-19T11:26:55;100939.69;;;6.46;100.00
48364;BME280;34170;54.364;18.582;2023-04-19T11:29:23;100936.78;;;6.49;100.00
48364;BME280;34170;54.364;18.582;2023-04-19T11:31:51;100939.06;;;6.55;100.00
48364;BME280;34170;54.364;18.582;2023-04-19T11:34:22;100941.66;;;6.57;100.00
48364;BME280;34170;54.364;18.582;2023-04-19T11:36:50;100941.13;;;6.64;100.00
48364;BME280;34170;54.364;18.582;2023-04-19T11:39:18;100930.97;;;6.70;100.00
48364;BME280;34170;54.364;18.582;2023-04-19T11:41:46;100937.91;;;6.59;100.00
48364;BME280;34170;54.364;18.582;2023-04-19T11:46:56;100935.38;;;6.96;100.00
48364;BME280;34170;54.364;18.582;2023-04-19T11:49:28;100942.53;;;6.83;100.00
48364;BME280;34170;54.364;18.582;2023-04-19T11:51:58;100944.78;;;7.02;100.00
48364;BME280;34170;54.364;18.582;2023-04-19T11:54:25;100919.66;;;7.04;100.00
48364;BME280;34170;54.364;18.582;2023-04-19T11:57:11;100922.88;;;6.84;100.00
48364;BME280;34170;54.364;18.582;2023-04-19T11:59:38;100934.31;;;7.37;100.00
48364;BME280;34170;54.364;18.582;2023-04-19T12:02:26;100925.88;;;7.05;100.00
48364;BME280;34170;54.364;18.582;2023-04-19T12:04:53;100920.72;;;7.15;100.00
48364;BME280;34170;54.364;18.582;2023-04-19T12:07:21;100922.75;;;7.24;100.00
48364;BME280;34170;54.364;18.582;2023-04-19T12:09:49;100923.34;;;7.66;100.00
48364;BME280;34170;54.364;18.582;2023-04-19T12:12:32;100921.31;;;8.18;97.52
48364;BME280;34170;54.364;18.582;2023-04-19T12:14:59;100912.00;;;8.35;97.06
48364;BME280;34170;54.364;18.582;2023-04-19T12:17:26;100911.78;;;8.62;94.50
48364;BME280;34170;54.364;18.582;2023-04-19T12:19:54;100917.72;;;8.54;96.01
48364;BME280;34170;54.364;18.582;2023-04-19T12:22:21;100915.53;;;8.59;94.63
48364;BME280;34170;54.364;18.582;2023-04-19T12:24:52;100909.25;;;8.12;97.87
48364;BME280;34170;54.364;18.582;2023-04-19T12:27:20;100909.69;;;8.30;95.88
48364;BME280;34170;54.364;18.582;2023-04-19T12:29:48;100913.28;;;8.42;95.33
48364;BME280;34170;54.364;18.582;2023-04-19T12:32:15;100902.88;;;8.62;94.13
48364;BME280;34170;54.364;18.582;2023-04-19T12:34:43;100895.88;;;8.94;94.44
48364;BME280;34170;54.364;18.582;2023-04-19T12:37:10;100910.59;;;8.89;92.10
48364;BME280;34170;54.364;18.582;2023-04-19T12:39:38;100908.69;;;9.02;91.51
48364;BME280;34170;54.364;18.582;2023-04-19T12:42:05;100902.13;;;9.51;87.31
48364;BME280;34170;54.364;18.582;2023-04-19T12:44:33;100904.06;;;9.38;86.35
48364;BME280;34170;54.364;18.582;2023-04-19T12:47:00;100895.78;;;9.41;89.10
48364;BME280;34170;54.364;18.582;2023-04-19T12:49:27;100905.50;;;9.87;85.52
48364;BME280;34170;54.364;18.582;2023-04-19T12:51:55;100901.84;;;10.32;84.04
48364;BME280;34170;54.364;18.582;2023-04-19T12:54:23;100906.16;;;10.44;85.87
48364;BME280;34170;54.364;18.582;2023-04-19T12:56:51;100908.91;;;10.96;87.61
48364;BME280;34170;54.364;18.582;2023-04-19T12:59:18;100921.50;;;11.17;82.31
48364;BME280;34170;54.364;18.582;2023-04-19T13:01:46;100910.28;;;9.61;80.02
48364;BME280;34170;54.364;18.582;2023-04-19T13:04:13;100920.31;;;9.14;84.91
48364;BME280;34170;54.364;18.582;2023-04-19T13:06:41;100903.97;;;9.28;86.55
48364;BME280;34170;54.364;18.582;2023-04-19T13:09:08;100917.84;;;9.22;86.08
48364;BME280;34170;54.364;18.582;2023-04-19T13:11:38;100916.00;;;9.11;86.40
48364;BME280;34170;54.364;18.582;2023-04-19T13:14:06;100903.94;;;9.06;86.90
48364;BME280;34170;54.364;18.582;2023-04-19T13:16:34;100909.06;;;9.09;87.02